createdAt,value
2017-06-20T00:02:02.823Z,69.30
2017-06-20T00:04:31.309Z,69.90
2017-06-20T00:06:59.688Z,69.80
2017-06-20T00:09:28.966Z,70.10
2017-06-20T00:11:57.368Z,70.00
2017-06-20T00:14:25.902Z,70.50
2017-06-20T00:16:53.588Z,70.50
2017-06-20T00:19:21.222Z,70.30
2017-06-20T00:21:49.477Z,70.40
2017-06-20T00:24:17.974Z,70.50
2017-06-20T00:26:45.578Z,70.80
2017-06-20T00:29:13.255Z,71.00
2017-06-20T00:31:41.456Z,71.40
2017-06-20T00:34:09.271Z,71.60
2017-06-20T00:36:37.014Z,71.50
2017-06-20T00:39:04.881Z,71.80
2017-06-20T00:41:32.809Z,72.00
2017-06-20T00:44:01.259Z,72.50
2017-06-20T00:46:29.274Z,72.60
2017-06-20T00:48:57.486Z,72.40
2017-06-20T00:51:25.834Z,72.70
2017-06-20T00:53:53.493Z,72.70
2017-06-20T00:56:21.853Z,73.50
2017-06-20T00:58:50.228Z,73.30
2017-06-20T01:01:17.894Z,73.20
2017-06-20T01:03:46.436Z,73.50
2017-06-20T01:06:15.311Z,73.50
2017-06-20T01:08:46.403Z,73.60
2017-06-20T01:11:14.108Z,73.50
2017-06-20T01:13:41.745Z,73.70
2017-06-20T01:16:10.033Z,74.00
2017-06-20T01:18:38.704Z,74.80
2017-06-20T01:21:07.390Z,75.30
2017-06-20T01:23:36.281Z,75.20
2017-06-20T01:26:04.381Z,74.90
2017-06-20T01:28:32.582Z,75.10
2017-06-20T01:31:01.160Z,75.00
2017-06-20T01:33:29.617Z,74.80
2017-06-20T01:35:59.350Z,74.70
2017-06-20T01:38:27.453Z,74.80
2017-06-20T01:40:55.240Z,74.70
2017-06-20T01:43:23.052Z,74.70
2017-06-20T01:45:50.613Z,74.60
2017-06-20T01:48:18.172Z,74.80
2017-06-20T01:50:46.256Z,74.90
2017-06-20T01:53:13.877Z,74.90
2017-06-20T01:55:41.624Z,75.00
2017-06-20T01:58:10.023Z,75.00
2017-06-20T02:00:37.822Z,75.10
2017-06-20T02:03:05.538Z,75.00
2017-06-20T02:05:34.216Z,75.10
2017-06-20T02:08:02.402Z,75.30
2017-06-20T02:10:31.607Z,75.10
2017-06-20T02:13:01.191Z,75.70
2017-06-20T02:15:29.733Z,75.60
2017-06-20T02:17:59.550Z,75.90
2017-06-20T02:20:28.673Z,75.90
2017-06-20T02:22:56.730Z,76.00
2017-06-20T02:25:24.415Z,76.00
2017-06-20T02:27:52.233Z,75.90
2017-06-20T02:30:19.856Z,76.30
2017-06-20T02:32:47.469Z,76.50
2017-06-20T02:35:15.305Z,76.60
2017-06-20T02:37:42.931Z,76.50
2017-06-20T02:40:10.740Z,76.30
2017-06-20T02:42:38.586Z,76.20
2017-06-20T02:45:06.336Z,76.20
2017-06-20T02:47:34.169Z,76.10
2017-06-20T02:50:03.525Z,76.40
2017-06-20T02:52:31.786Z,76.00
2017-06-20T02:54:59.673Z,76.30
2017-06-20T02:57:28.043Z,76.30
2017-06-20T02:59:56.902Z,77.00
2017-06-20T03:02:24.804Z,76.90
2017-06-20T03:04:52.948Z,77.10
2017-06-20T03:07:21.301Z,77.20
2017-06-20T03:09:48.861Z,77.10
2017-06-20T03:12:17.829Z,77.50
2017-06-20T03:14:45.384Z,77.40
2017-06-20T03:17:13.717Z,77.50
2017-06-20T03:19:42.653Z,77.30
2017-06-20T03:22:11.628Z,77.70
2017-06-20T03:24:39.587Z,77.80
2017-06-20T03:27:07.517Z,78.00
2017-06-20T03:29:35.344Z,78.40
2017-06-20T03:32:03.984Z,78.10
2017-06-20T03:34:32.149Z,78.00
2017-06-20T03:37:00.078Z,78.80
2017-06-20T03:39:28.159Z,78.10
2017-06-20T03:41:56.801Z,78.20
2017-06-20T03:44:25.267Z,77.90
2017-06-20T03:46:52.836Z,77.90
2017-06-20T03:49:20.595Z,78.20
2017-06-20T03:51:48.156Z,78.60
2017-06-20T03:54:16.472Z,78.50
2017-06-20T03:56:44.366Z,78.50
2017-06-20T03:59:12.118Z,78.70
2017-06-20T04:01:40.773Z,79.20
2017-06-20T04:04:08.932Z,78.40
2017-06-20T04:06:37.714Z,78.50
2017-06-20T04:09:05.566Z,78.40
2017-06-20T04:11:33.753Z,78.30
2017-06-20T04:14:01.737Z,78.30
2017-06-20T04:16:29.669Z,78.50
2017-06-20T04:18:58.968Z,78.60
2017-06-20T04:21:36.391Z,78.70
2017-06-20T04:24:04.209Z,78.50
2017-06-20T04:26:32.713Z,78.30
2017-06-20T04:29:00.903Z,78.20
2017-06-20T04:31:29.544Z,78.50
2017-06-20T04:33:57.575Z,78.20
2017-06-20T04:36:25.299Z,77.90
2017-06-20T04:38:54.244Z,78.30
2017-06-20T04:41:21.856Z,77.40
2017-06-20T04:43:49.436Z,77.70
2017-06-20T04:46:18.800Z,77.70
2017-06-20T04:48:47.122Z,76.90
2017-06-20T04:51:14.688Z,76.80
2017-06-20T04:53:42.685Z,76.70
2017-06-20T04:56:10.484Z,76.90
2017-06-20T04:58:38.299Z,76.80
2017-06-20T05:01:06.575Z,76.70
2017-06-20T05:03:34.227Z,77.00
2017-06-20T05:06:02.098Z,77.10
2017-06-20T05:08:30.388Z,77.00
2017-06-20T05:10:58.244Z,77.10
2017-06-20T05:13:27.380Z,76.90
2017-06-20T05:15:55.387Z,76.20
2017-06-20T05:18:23.800Z,75.40
2017-06-20T05:20:51.356Z,75.40
2017-06-20T05:23:19.657Z,75.10
2017-06-20T05:25:47.754Z,75.40
2017-06-20T05:28:15.413Z,75.10
2017-06-20T18:39:54.316Z,42.30
2017-06-20T18:42:21.960Z,42.90
2017-06-20T18:44:49.638Z,42.90
2017-06-20T18:47:17.361Z,43.10
2017-06-20T18:49:45.100Z,42.80
2017-06-20T18:52:12.895Z,43.20
2017-06-20T18:54:42.056Z,43.70
2017-06-20T18:57:09.708Z,43.50
2017-06-20T18:59:37.274Z,44.40
2017-06-20T19:02:04.936Z,45.00
2017-06-20T19:04:32.599Z,45.30
2017-06-20T19:07:00.237Z,45.50
2017-06-20T19:09:28.955Z,45.80
2017-06-20T19:11:56.766Z,45.70
2017-06-20T19:14:24.429Z,46.10
2017-06-20T19:16:54.222Z,46.50
2017-06-20T19:19:21.845Z,46.90
2017-06-20T19:21:49.496Z,47.60
2017-06-20T19:24:18.909Z,48.00
2017-06-20T19:26:46.597Z,48.20
2017-06-20T19:29:14.270Z,48.50
2017-06-20T19:31:41.919Z,49.00
2017-06-20T19:34:09.682Z,49.10
2017-06-20T19:36:38.464Z,49.60
2017-06-20T19:39:06.765Z,49.60
2017-06-20T19:41:35.165Z,49.70
2017-06-20T19:44:03.610Z,50.40
2017-06-20T19:46:31.685Z,51.00
2017-06-20T19:49:00.311Z,50.80
2017-06-20T19:51:27.974Z,50.70
2017-06-20T19:53:55.946Z,50.60
2017-06-20T19:56:23.521Z,50.90
2017-06-20T19:58:51.166Z,51.00
2017-06-20T20:01:20.491Z,51.80
2017-06-20T20:03:48.063Z,51.70
2017-06-20T20:06:15.632Z,51.90
2017-06-20T20:08:44.016Z,52.20
2017-06-20T20:11:11.648Z,52.30
2017-06-20T20:13:39.436Z,52.10
2017-06-20T20:16:07.292Z,52.00
2017-06-20T20:18:35.962Z,52.40
2017-06-20T20:21:03.575Z,52.30
2017-06-20T20:23:34.124Z,52.30
2017-06-20T20:26:01.916Z,52.30
2017-06-20T20:28:29.662Z,52.40
2017-06-20T20:30:58.717Z,52.60
2017-06-20T20:33:26.494Z,52.60
2017-06-20T20:35:54.146Z,52.70
2017-06-20T20:38:21.953Z,53.40
2017-06-20T20:40:49.545Z,54.00
2017-06-20T20:43:18.095Z,54.20
2017-06-20T20:45:47.232Z,54.60
2017-06-20T20:48:14.949Z,54.70
2017-06-20T20:50:43.370Z,55.00
2017-06-20T20:53:11.025Z,54.90
2017-06-20T20:55:38.654Z,55.10
2017-06-20T20:58:06.525Z,55.70
2017-06-20T21:00:34.457Z,55.50
2017-06-20T21:03:02.053Z,55.70
2017-06-20T21:05:30.528Z,56.00
2017-06-20T21:07:58.648Z,56.00
2017-06-20T21:10:28.104Z,56.50
2017-06-20T21:12:55.695Z,56.40
2017-06-20T21:15:24.593Z,56.60
2017-06-20T21:17:53.109Z,56.50
2017-06-20T21:20:20.792Z,56.50
2017-06-20T21:22:49.151Z,56.60
2017-06-20T21:25:16.713Z,56.80
2017-06-20T21:27:45.193Z,56.90
2017-06-20T21:30:12.815Z,56.80
2017-06-20T21:32:41.126Z,57.00
2017-06-20T21:35:08.715Z,56.90
2017-06-20T21:37:37.272Z,56.80
2017-06-20T21:40:04.985Z,56.80
2017-06-20T21:42:32.663Z,56.90
2017-06-20T21:45:01.846Z,56.90
2017-06-20T21:47:30.218Z,57.60
2017-06-20T21:49:57.781Z,57.00
2017-06-20T21:52:27.077Z,57.00
2017-06-20T21:54:54.696Z,57.00
2017-06-20T21:57:23.060Z,56.90
2017-06-20T21:59:52.353Z,57.00
2017-06-20T22:02:20.700Z,57.20
2017-06-20T22:04:48.285Z,57.10
2017-06-20T22:07:16.232Z,57.00
2017-06-20T22:09:43.860Z,57.00
2017-06-20T22:12:12.196Z,57.50
2017-06-20T22:14:39.806Z,57.30
2017-06-20T22:17:07.502Z,57.60
2017-06-20T22:19:35.147Z,57.70
2017-06-20T22:22:02.780Z,58.00
2017-06-20T22:24:30.462Z,58.10
2017-06-20T22:26:58.139Z,58.10
2017-06-20T22:29:27.148Z,58.50
2017-06-20T22:31:55.511Z,58.70
2017-06-20T22:34:23.886Z,58.30
2017-06-20T22:36:52.643Z,58.90
2017-06-20T22:39:21.035Z,58.60
2017-06-20T22:41:49.362Z,59.40
2017-06-20T22:44:17.325Z,59.40
2017-06-20T22:46:46.116Z,59.60
2017-06-20T22:49:14.541Z,60.30
2017-06-20T22:51:42.973Z,59.80
2017-06-20T22:54:10.561Z,59.90
2017-06-20T22:56:38.136Z,59.90
2017-06-20T22:59:06.512Z,60.00
2017-06-20T23:01:34.916Z,60.80
2017-06-20T23:04:02.539Z,60.80
2017-06-20T23:06:30.725Z,61.00
2017-06-20T23:08:58.414Z,61.10
2017-06-20T23:11:26.105Z,60.90
2017-06-20T23:13:53.739Z,61.20
2017-06-20T23:16:21.351Z,61.00
2017-06-20T23:18:48.923Z,61.00
2017-06-20T23:21:16.892Z,60.70
2017-06-20T23:23:44.523Z,61.10
2017-06-20T23:26:12.113Z,61.60
2017-06-20T23:28:39.716Z,61.40
2017-06-20T23:31:07.483Z,61.50
2017-06-20T23:33:35.190Z,61.40
2017-06-20T23:36:03.903Z,61.60
2017-06-20T23:38:31.609Z,61.50
2017-06-20T23:40:59.271Z,61.90
2017-06-20T23:43:27.510Z,62.20
2017-06-20T23:45:55.092Z,62.70
2017-06-20T23:48:23.615Z,62.80
2017-06-20T23:50:51.511Z,63.20
2017-06-20T23:53:19.124Z,62.70
2017-06-20T23:55:47.538Z,61.80
2017-06-20T23:58:15.560Z,62.30
